»·PEaware :: WAT203 KLAS-KSLC

WAT203 :: KLAS-KSLC

FLIGHT INFORMATION

Flight Status: Arrived
Operator: Unknown
More flights by this operator :: More flights under this callsign
Pilot: Zachary C. (8151)
Aircraft: AIRBUS A319
(A319)
More flights by this aircraft type
Origin: KLAS McCarran Intl
United States
Destination: KSLC Salt Lake City Intl
United States
More flights between these airports :: More routes between these airports
Route: +STAAV8 MLF QWENN5
File this flight plan on PilotEdge
Remarks: RMK / SIMBRIEF
Altitude:
(Current/Filed)
31,000ft
Speed:
(Current/Filed)
414kts
Departed: 22-May-20 06:21 PM
Arrived: 22-May-20 07:12 PM
Distance/Time
Traveled:
319nm/0:51
Distance/Time
To Go:
Arrived

Flight Plot

Page will automatically refresh every two minutes.


Map Options




Map Legend


Flown Route
Filed Route
Departure Airport
Arrival Airport
Navaid (VOR, NDB)
Fix

Horizontal Profiles

Position Reports

Time Latitude Longitude Heading Altitude Ground
Speed
22-May-20 17:50 36.080471 -115.136546 43 2072ft 0kts
22-May-20 17:51 36.080471 -115.136546 43 2072ft 0kts
22-May-20 17:52 36.080471 -115.136546 43 2072ft 0kts
22-May-20 17:53 36.080471 -115.136546 43 2072ft 0kts
22-May-20 17:54 36.080471 -115.136546 43 2072ft 0kts
22-May-20 17:55 36.080471 -115.136546 43 2072ft 0kts
22-May-20 17:56 36.080471 -115.136546 43 2072ft 0kts
22-May-20 17:57 36.080471 -115.136546 43 2072ft 0kts
22-May-20 17:58 36.080471 -115.136546 43 2072ft 0kts
22-May-20 17:59 36.080471 -115.136546 43 2072ft 0kts
22-May-20 18:00 36.080471 -115.136546 43 2072ft 0kts
22-May-20 18:01 36.080471 -115.136546 43 2072ft 0kts
22-May-20 18:02 36.080471 -115.136546 43 2072ft 0kts
22-May-20 18:03 36.080471 -115.136546 43 2072ft 0kts
22-May-20 18:04 36.080471 -115.136546 43 2072ft 0kts
22-May-20 18:05 36.080471 -115.136546 43 2072ft 0kts
22-May-20 18:06 36.080471 -115.136546 43 2072ft 0kts
22-May-20 18:07 36.080471 -115.136546 43 2072ft 0kts
22-May-20 18:08 36.080471 -115.136547 43 2072ft 0kts
22-May-20 18:09 36.080167 -115.137043 78 2073ft 2kts
22-May-20 18:10 36.080312 -115.137636 137 2074ft 1kts
22-May-20 18:11 36.080329 -115.137656 135 2074ft 0kts
22-May-20 18:12 36.080329 -115.137656 135 2074ft 0kts
22-May-20 18:13 36.080329 -115.137656 135 2074ft 0kts
22-May-20 18:14 36.078973 -115.135982 135 2071ft 13kts
22-May-20 18:15 36.078276 -115.130776 90 2055ft 13kts
22-May-20 18:16 36.078285 -115.126606 89 2046ft 15kts
22-May-20 18:17 36.078262 -115.122788 101 2041ft 7kts
22-May-20 18:18 36.076629 -115.121270 180 2039ft 9kts
22-May-20 18:19 36.076391 -115.121779 269 2041ft 0kts
22-May-20 18:20 36.076397 -115.124794 270 2048ft 69kts
22-May-20 18:21 36.076620 -115.175230 270 3816ft 164kts
22-May-20 18:22 36.076387 -115.238233 270 6160ft 212kts
22-May-20 18:23 36.113593 -115.292905 341 9049ft 261kts
22-May-20 18:24 36.176566 -115.252791 66 11544ft 302kts
22-May-20 18:25 36.197589 -115.142104 93 13027ft 358kts
22-May-20 18:26 36.198161 -115.008041 93 14378ft 418kts
22-May-20 18:27 36.199634 -114.854822 92 15849ft 464kts
22-May-20 18:28 36.265017 -114.718469 35 18085ft 490kts
22-May-20 18:29 36.376964 -114.614504 35 20198ft 505kts
22-May-20 18:30 36.488177 -114.508934 34 23003ft 497kts
22-May-20 18:31 36.603421 -114.409706 28 24827ft 505kts
22-May-20 18:32 36.724459 -114.316404 28 26407ft 515kts
22-May-20 18:33 36.847872 -114.220123 28 27718ft 522kts
22-May-20 18:34 36.972035 -114.123192 27 28736ft 528kts
22-May-20 18:35 37.094991 -114.026681 26 30668ft 514kts
22-May-20 18:36 37.217774 -113.930675 26 30725ft 521kts
22-May-20 18:37 37.340078 -113.834171 26 30725ft 516kts
22-May-20 18:38 37.461721 -113.737779 26 30725ft 515kts
22-May-20 18:39 37.582982 -113.641325 26 30741ft 515kts
22-May-20 18:40 37.703773 -113.544842 26 30795ft 515kts
22-May-20 18:41 37.824661 -113.447923 26 30830ft 515kts
22-May-20 18:42 37.945515 -113.350628 26 30837ft 514kts
22-May-20 18:43 38.066308 -113.252519 27 30837ft 515kts
22-May-20 18:44 38.185544 -113.155954 26 30813ft 509kts
22-May-20 18:45 38.305377 -113.058429 26 30782ft 508kts
22-May-20 18:46 38.428922 -112.976137 15 30775ft 497kts
22-May-20 18:47 38.556000 -112.909166 15 30774ft 492kts
22-May-20 18:48 38.681956 -112.841810 16 30774ft 489kts
22-May-20 18:49 38.807125 -112.774512 16 30773ft 486kts
22-May-20 18:50 38.932700 -112.706851 16 30769ft 490kts
22-May-20 18:51 39.060150 -112.637948 18 30764ft 504kts
22-May-20 18:52 39.189511 -112.567609 19 27946ft 508kts
22-May-20 18:53 39.320470 -112.495889 20 24182ft 515kts
22-May-20 18:54 39.451894 -112.420312 21 23770ft 518kts
22-May-20 18:55 39.583848 -112.344161 22 23722ft 519kts
22-May-20 18:56 39.713060 -112.269128 22 20313ft 488kts
22-May-20 18:57 39.824392 -112.204459 22 17917ft 397kts
22-May-20 18:58 39.917912 -112.150084 23 15937ft 349kts
22-May-20 18:59 40.005635 -112.098335 24 14850ft 344kts
22-May-20 19:00 40.092542 -112.045729 24 14836ft 344kts
22-May-20 19:01 40.177592 -111.994370 24 14079ft 339kts
22-May-20 19:02 40.263181 -111.945289 15 12564ft 331kts
22-May-20 19:03 40.351864 -111.932206 0 11323ft 312kts
22-May-20 19:04 40.431996 -111.933201 347 10837ft 265kts
22-May-20 19:05 40.505453 -111.941896 347 9494ft 264kts
22-May-20 19:06 40.578312 -111.950359 347 8099ft 261kts
22-May-20 19:07 40.646018 -111.958140 348 6786ft 210kts
22-May-20 19:08 40.693294 -111.963627 347 5836ft 133kts
22-May-20 19:09 40.730384 -111.968026 350 5155ft 133kts
22-May-20 19:10 40.766715 -111.972216 350 4434ft 129kts
22-May-20 19:11 40.791561 -111.975586 331 4236ft 23kts
22-May-20 19:12 40.792142 -111.976529 273 4236ft 0kts
22-May-20 19:13 40.789820 -111.978241 172 4236ft 9kts
22-May-20 19:14 40.789215 -111.978356 187 4236ft 0kts
22-May-20 19:15 40.789215 -111.978356 187 4236ft 0kts
22-May-20 19:16 40.789215 -111.978356 187 4236ft 0kts
22-May-20 19:18 40.789215 -111.978356 187 4236ft 0kts
22-May-20 19:19 40.789215 -111.978356 187 4236ft 0kts
22-May-20 19:20 40.789215 -111.978356 187 4236ft 0kts
22-May-20 19:21 40.789215 -111.978356 187 4236ft 0kts
22-May-20 19:22 40.789215 -111.978356 187 4236ft 0kts
22-May-20 19:23 40.789215 -111.978356 187 4236ft 0kts
22-May-20 19:24 40.789215 -111.978356 187 4236ft 0kts
22-May-20 19:25 40.789215 -111.978356 187 4236ft 0kts
22-May-20 19:26 40.789215 -111.978356 187 4236ft 0kts

Navigation Log

Ident Type
Flight plan parsing failed, navigation log unavailable